METAR Data
IDs: Format: Raw Decoded Include TAF

Data at: 1231 UTC 23 Sep 2018

KASN 231215Z AUTO 00000KT 10SM CLR 21/20 A3005 RMK AO2 T02100200
KASN 231155Z AUTO 00000KT 10SM CLR 21/20 A3004 RMK AO2 T02050198 10220 20198
KASN 231135Z AUTO 00000KT 10SM SCT038 21/20 A3004 RMK AO2 T02050198
KASN 231115Z AUTO 00000KT 10SM BKN038 BKN043 BKN050 21/20 A3003 RMK AO2 T02070198
KASN 231055Z AUTO 00000KT 10SM SCT035 BKN043 OVC050 21/20 A3003 RMK AO2 LTG DSNT S T02050200
KASN 231035Z AUTO 00000KT 10SM SCT043 BKN050 21/20 A3003 RMK AO2 LTG DSNT S T02070197
KASN 231015Z AUTO 00000KT 10SM CLR 20/20 A3003 RMK AO2 T01990196
KASN 230955Z AUTO 00000KT 10SM CLR 20/19 A3002 RMK AO2 T02040192
KASN 230935Z AUTO 00000KT 10SM CLR 20/19 A3002 RMK AO2 T02010194
KASN 230915Z AUTO 00000KT 10SM CLR 20/19 A3002 RMK AO2 LTG DSNT S T02000194
KASN 230850Z AUTO 00000KT 10SM CLR 21/20 A3002 RMK AO2 LTG DSNT S T02130198
KASN 230835Z AUTO 00000KT 10SM CLR 20/20 A3002 RMK AO2 LTG DSNT S T02030196
KASN 230815Z AUTO 00000KT 10SM CLR 21/20 A3002 RMK AO2 T02140198
KASN 230755Z AUTO 00000KT 10SM CLR 21/20 A3002 RMK AO2 T02050196
KASN 230735Z AUTO 00000KT 10SM CLR 21/20 A3003 RMK AO2 T02130198
KASN 230715Z AUTO 00000KT 10SM CLR 21/20 A3003 RMK AO2 T02140200
KASN 230655Z AUTO 07003KT 10SM CLR 21/20 A3002 RMK AO2 T02110198
KASN 230635Z AUTO 00000KT 10SM SCT060 22/20 A3003 RMK AO2 T02170202
KASN 230615Z AUTO 00000KT 10SM SCT060 22/20 A3003 RMK AO2 T02180202
KASN 230555Z AUTO 00000KT 10SM SCT060 22/20 A3003 RMK AO2 LTG DSNT S T02190202 10281 20219 403400201
KASN 230535Z AUTO 00000KT 10SM CLR 22/20 A3004 RMK AO2 T02220201
KASN 230515Z AUTO 00000KT 10SM CLR 23/20 A3004 RMK AO2 T02250202
KASN 230455Z AUTO 00000KT 10SM CLR 23/20 A3004 RMK AO2 T02320202
KASN 230435Z AUTO 00000KT 10SM CLR 23/20 A3004 RMK AO2 T02300204
KASN 230415Z AUTO 00000KT 10SM SCT080 24/21 A3006 RMK AO2 T02360205
KASN 230355Z AUTO 00000KT 10SM CLR 24/20 A3006 RMK AO2 T02430203
KASN 230335Z AUTO 00000KT 10SM CLR 24/20 A3006 RMK AO2 T02440203
KASN 230315Z AUTO 00000KT 10SM SCT065 25/20 A3006 RMK AO2 T02450204
KASN 230255Z AUTO 00000KT 10SM CLR 25/20 A3006 RMK AO2 T02510201
KASN 230235Z AUTO 00000KT 10SM SCT075 26/20 A3005 RMK AO2 T02550200
KASN 230215Z AUTO 00000KT 10SM SCT065 BKN075 25/20 A3005 RMK AO2 T02460203
KASN 230155Z AUTO 00000KT 10SM SCT070 SCT080 25/20 A3004 RMK AO2 T02510202
KASN 230135Z AUTO 00000KT 10SM SCT070 25/20 A3004 RMK AO2 LTG DSNT N AND S T02460201
KASN 230115Z AUTO 00000KT 10SM CLR 26/20 A3003 RMK AO2 T02620197
KASN 230055Z AUTO 00000KT 10SM CLR 25/20 A3002 RMK AO2 LTG DSNT N AND S T02540198
KASN 230035Z AUTO 00000KT 10SM CLR 26/20 A3002 RMK AO2 LTG DSNT N T02620200
KASN 230015Z AUTO 00000KT 10SM CLR 27/20 A3001 RMK AO2 LTG DSNT N T02710196
KASN 222355Z AUTO 00000KT 10SM CLR 28/19 A3000 RMK AO2 T02830191 10340 20282
KASN 222335Z AUTO 00000KT 10SM CLR 29/19 A3000 RMK AO2 T02900189
KASN 222315Z AUTO 18003KT 10SM CLR 31/18 A3000 RMK AO2 T03070180
KASN 222255Z AUTO 17004KT 10SM CLR 31/18 A2999 RMK AO2 T03130178
KASN 222235Z AUTO 16006KT 10SM CLR 32/18 A2999 RMK AO2 T03180180
KASN 222215Z AUTO 14005KT 10SM CLR 32/18 A2999 RMK AO2 T03210184
KASN 222155Z AUTO 17006KT 10SM CLR 33/18 A2998 RMK AO2 T03280180
KASN 222135Z AUTO 18005KT 10SM CLR 33/17 A2998 RMK AO2 T03330174
KASN 222115Z AUTO 17009KT 10SM SCT065 SCT085 34/18 A2998 RMK AO2 T03370176
KASN 222055Z AUTO 20006KT 10SM BKN060 BKN085 34/18 A2998 RMK AO2 T03380184
KASN 222035Z AUTO 11005KT 10SM SCT060 SCT075 33/18 A2999 RMK AO2 T03310181
KASN 222015Z AUTO 16007KT 140V220 10SM BKN060 BKN075 34/18 A3000 RMK AO2 T03380184
KASN 221955Z AUTO 13007KT 10SM SCT060 34/19 A3001 RMK AO2 T03370188
KASN 221935Z AUTO 15006KT 10SM SCT055 34/19 A3001 RMK AO2 T03370185
KASN 221915Z AUTO 13006KT 10SM SCT055 33/19 A3003 RMK AO2 T03330191
KASN 221855Z AUTO 19006KT 10SM SCT055 SCT095 33/19 A3004 RMK AO2 T03310189
KASN 221835Z AUTO 13004KT 10SM SCT055 SCT095 33/19 A3005 RMK AO2 T03280192
KASN 221815Z AUTO 16007KT 10SM SCT055 SCT070 BKN090 32/20 A3006 RMK AO2 T03190196
KASN 221755Z AUTO 16007KT 10SM BKN055 BKN070 BKN090 34/20 A3007 RMK AO2 LTG DSNT S T03350195 10335 20205
KASN 221735Z AUTO 18005KT 10SM SCT049 SCT055 SCT070 33/20 A3007 RMK AO2 T03330201
KASN 221715Z AUTO 19008KT 150V230 10SM BKN049 BKN055 OVC070 32/20 A3008 RMK AO2 T03240201
KASN 221655Z AUTO 13003KT 10SM BKN047 BKN060 OVC080 31/20 A3009 RMK AO2 T03050201
KASN 221635Z AUTO 24006KT 10SM SCT042 BKN050 BKN060 31/21 A3009 RMK AO2 T03080205
KASN 221615Z AUTO 12006KT 10SM SCT035 BKN042 BKN050 31/20 A3010 RMK AO2 T03140202
KASN 221555Z AUTO 14003KT 10SM SCT035 SCT041 31/22 A3011 RMK AO2 LTG DSNT S T03070215
KASN 221535Z AUTO 15003KT 10SM CLR 30/22 A3011 RMK AO2 T02980219
KASN 221515Z AUTO 14006KT 10SM CLR 29/22 A3011 RMK AO2 T02910218
KASN 221455Z AUTO 16005KT 10SM CLR 28/22 A3011 RMK AO2 T02840218
KASN 221435Z AUTO 00000KT 10SM CLR 27/22 A3011 RMK AO2 T02740217
KASN 221415Z AUTO 17006KT 10SM CLR 27/22 A3011 RMK AO2 T02710218
KASN 221355Z AUTO 15005KT 10SM CLR 26/22 A3011 RMK AO2 T02630217
KASN 221335Z AUTO 15004KT 10SM CLR 25/22 A3011 RMK AO2 T02510216
KASN 221315Z AUTO 00000KT 10SM CLR 24/22 A3011 RMK AO2 LTG DSNT S T02440215
KASN 221255Z AUTO 00000KT 10SM CLR 23/21 A3011 RMK AO2 T02320212
KASN 221235Z AUTO 00000KT 10SM CLR 22/21 A3011 RMK AO2 T02210210
KASN 221215Z AUTO 00000KT 10SM CLR 22/21 A3010 RMK AO2 T02160205
KASN 221155Z AUTO 00000KT 10SM CLR 21/20 A3010 RMK AO2 T02050200 10237 20201
KASN 221135Z AUTO 00000KT 10SM CLR 21/20 A3010 RMK AO2 T02090201
KASN 221115Z AUTO 00000KT 10SM CLR 20/20 A3010 RMK AO2 T02030200
KASN 221055Z AUTO 07003KT 10SM CLR 21/20 A3009 RMK AO2 T02050200
KASN 221035Z AUTO 05003KT 10SM CLR 21/20 A3009 RMK AO2 T02080202
KASN 221015Z AUTO 00000KT 10SM CLR 21/21 A3009 RMK AO2 T02080206
KASN 220955Z AUTO 00000KT 10SM CLR 21/21 A3009 RMK AO2 T02110207
KASN 220935Z AUTO 00000KT 10SM CLR 21/21 A3009 RMK AO2 T02120207
KASN 220915Z AUTO 00000KT 10SM CLR 21/21 A3009 RMK AO2 T02110207
KASN 220855Z AUTO 00000KT 10SM CLR 22/21 A3009 RMK AO2 T02190213
KASN 220835Z AUTO 00000KT 10SM CLR 22/22 A3009 RMK AO2 LTG DSNT SW T02190216
KASN 220815Z AUTO 00000KT 10SM CLR 23/22 A3009 RMK AO2 T02270222
KASN 220755Z AUTO 00000KT 10SM SCT120 23/22 A3009 RMK AO2 T02260221
KASN 220735Z AUTO 00000KT 10SM SCT120 24/22 A3010 RMK AO2 T02350224
KASN 220715Z AUTO 00000KT 10SM BKN120 24/22 A3010 RMK AO2 T02360223
KASN 220655Z AUTO 00000KT 10SM BKN120 23/23 A3010 RMK AO2 T02320229
KASN 220635Z AUTO 00000KT 10SM CLR 23/23 A3011 RMK AO2 T02320229
KASN 220615Z AUTO 05003KT 10SM SCT120 23/23 A3011 RMK AO2 T02340230
KASN 220555Z AUTO 00000KT 10SM OVC120 24/23 A3011 RMK AO2 T02360231 10271 20235 403250222
KASN 220535Z AUTO 00000KT 10SM OVC120 24/23 A3011 RMK AO2 LTG DSNT SW T02380234
KASN 220515Z AUTO 00000KT 10SM OVC120 24/23 A3011 RMK AO2 T02360233
KASN 220455Z AUTO 00000KT 10SM BKN120 24/24 A3011 RMK AO2 T02400235
KASN 220435Z AUTO 12003KT 10SM SCT120 24/24 A3011 RMK AO2 T02400236
KASN 220415Z AUTO 12004KT 10SM SCT075 24/23 A3011 RMK AO2 T02360234
KASN 220355Z AUTO 00000KT 10SM BKN075 24/23 A3012 RMK AO2 LTG DSNT N T02350231
KASN 220335Z AUTO 00000KT 10SM SCT110 25/24 A3011 RMK AO2 LTG DSNT N T02500238
KASN 220315Z AUTO 00000KT 10SM BKN110 25/24 A3011 RMK AO2 LTG DSNT N T02460236
KASN 220255Z AUTO 00000KT 10SM CLR 25/24 A3011 RMK AO2 T02520239
KASN 220235Z AUTO 00000KT 10SM SCT055 SCT120 25/24 A3011 RMK AO2 LTG DSNT N T02540240
KASN 220215Z AUTO 00000KT 10SM BKN120 26/24 A3011 RMK AO2 T02630239
KASN 220155Z AUTO 00000KT 10SM BKN120 26/24 A3011 RMK AO2 LTG DSNT N AND SW T02600240
KASN 220135Z AUTO 00000KT 10SM BKN110 26/24 A3011 RMK AO2 LTG DSNT N T02630238
KASN 220115Z AUTO 00000KT 10SM OVC110 27/24 A3009 RMK AO2 LTG DSNT N T02660238
KASN 220055Z AUTO 00000KT 10SM OVC110 27/24 A3008 RMK AO2 LTG DSNT N AND S T02660240
KASN 220035Z AUTO 00000KT 10SM OVC110 27/24 A3007 RMK AO2 T02660241